sensor_id;sensor_type;location;lat;lon;timestamp;P1;durP1;ratioP1;P2;durP2;ratioP2
61096;SDS011;46977;50.936;6.908;2023-02-28T00:01:22;1.05;;;0.90;;
61096;SDS011;46977;50.936;6.908;2023-02-28T00:04:24;1.13;;;0.90;;
61096;SDS011;46977;50.936;6.908;2023-02-28T00:07:28;2.63;;;1.13;;
61096;SDS011;46977;50.936;6.908;2023-02-28T00:10:31;1.15;;;0.73;;
61096;SDS011;46977;50.936;6.908;2023-02-28T00:13:33;1.10;;;1.00;;
61096;SDS011;46977;50.936;6.908;2023-02-28T00:16:37;2.45;;;0.80;;
61096;SDS011;46977;50.936;6.908;2023-02-28T00:19:39;2.63;;;1.00;;
61096;SDS011;46977;50.936;6.908;2023-02-28T00:22:44;0.80;;;0.80;;
61096;SDS011;46977;50.936;6.908;2023-02-28T00:25:47;0.70;;;0.65;;
61096;SDS011;46977;50.936;6.908;2023-02-28T00:28:51;2.00;;;0.68;;
61096;SDS011;46977;50.936;6.908;2023-02-28T00:31:54;1.15;;;0.90;;
61096;SDS011;46977;50.936;6.908;2023-02-28T00:34:56;1.63;;;0.70;;
61096;SDS011;46977;50.936;6.908;2023-02-28T00:38:00;1.38;;;0.90;;
61096;SDS011;46977;50.936;6.908;2023-02-28T00:41:03;0.85;;;0.80;;
61096;SDS011;46977;50.936;6.908;2023-02-28T00:44:06;1.92;;;0.80;;
61096;SDS011;46977;50.936;6.908;2023-02-28T00:47:09;1.63;;;0.73;;
61096;SDS011;46977;50.936;6.908;2023-02-28T00:50:12;0.70;;;0.43;;
61096;SDS011;46977;50.936;6.908;2023-02-28T00:53:15;1.85;;;0.90;;
61096;SDS011;46977;50.936;6.908;2023-02-28T00:56:18;1.35;;;0.70;;
61096;SDS011;46977;50.936;6.908;2023-02-28T00:59:21;1.00;;;0.90;;
61096;SDS011;46977;50.936;6.908;2023-02-28T01:02:24;1.25;;;0.95;;
61096;SDS011;46977;50.936;6.908;2023-02-28T01:05:27;3.58;;;0.90;;
61096;SDS011;46977;50.936;6.908;2023-02-28T01:08:31;1.95;;;0.80;;
61096;SDS011;46977;50.936;6.908;2023-02-28T01:11:33;2.67;;;0.90;;
61096;SDS011;46977;50.936;6.908;2023-02-28T01:14:36;1.50;;;0.50;;
61096;SDS011;46977;50.936;6.908;2023-02-28T01:17:38;2.35;;;0.70;;
61096;SDS011;46977;50.936;6.908;2023-02-28T01:20:41;0.70;;;0.70;;
61096;SDS011;46977;50.936;6.908;2023-02-28T01:23:45;2.20;;;1.40;;
61096;SDS011;46977;50.936;6.908;2023-02-28T01:26:48;1.67;;;0.85;;
61096;SDS011;46977;50.936;6.908;2023-02-28T01:29:50;2.38;;;1.13;;
61096;SDS011;46977;50.936;6.908;2023-02-28T01:32:53;0.80;;;0.75;;
61096;SDS011;46977;50.936;6.908;2023-02-28T01:35:58;1.38;;;0.80;;
61096;SDS011;46977;50.936;6.908;2023-02-28T01:39:02;1.33;;;0.80;;
61096;SDS011;46977;50.936;6.908;2023-02-28T01:42:04;2.22;;;0.95;;
61096;SDS011;46977;50.936;6.908;2023-02-28T01:45:16;1.15;;;1.05;;
61096;SDS011;46977;50.936;6.908;2023-02-28T01:48:22;1.75;;;0.82;;
61096;SDS011;46977;50.936;6.908;2023-02-28T01:51:29;2.35;;;0.90;;
61096;SDS011;46977;50.936;6.908;2023-02-28T01:54:36;2.72;;;0.88;;
61096;SDS011;46977;50.936;6.908;2023-02-28T01:57:39;2.72;;;1.10;;
61096;SDS011;46977;50.936;6.908;2023-02-28T02:00:43;1.27;;;0.80;;
61096;SDS011;46977;50.936;6.908;2023-02-28T02:03:46;0.80;;;0.80;;
61096;SDS011;46977;50.936;6.908;2023-02-28T02:06:48;0.80;;;0.80;;
61096;SDS011;46977;50.936;6.908;2023-02-28T02:09:58;2.25;;;1.30;;
61096;SDS011;46977;50.936;6.908;2023-02-28T02:13:05;1.80;;;1.00;;
61096;SDS011;46977;50.936;6.908;2023-02-28T02:16:20;0.85;;;0.75;;
61096;SDS011;46977;50.936;6.908;2023-02-28T02:19:53;1.70;;;0.82;;
61096;SDS011;46977;50.936;6.908;2023-02-28T02:27:05;0.80;;;0.70;;
61096;SDS011;46977;50.936;6.908;2023-02-28T02:30:40;2.03;;;0.75;;
61096;SDS011;46977;50.936;6.908;2023-02-28T02:37:28;1.02;;;0.70;;
61096;SDS011;46977;50.936;6.908;2023-02-28T02:40:35;0.88;;;0.70;;
61096;SDS011;46977;50.936;6.908;2023-02-28T02:43:44;1.23;;;0.80;;
61096;SDS011;46977;50.936;6.908;2023-02-28T02:46:48;2.50;;;0.60;;
61096;SDS011;46977;50.936;6.908;2023-02-28T02:49:55;1.00;;;0.90;;
61096;SDS011;46977;50.936;6.908;2023-02-28T02:52:59;0.75;;;0.70;;
61096;SDS011;46977;50.936;6.908;2023-02-28T02:56:04;1.58;;;0.95;;
61096;SDS011;46977;50.936;6.908;2023-02-28T02:59:09;1.67;;;0.70;;
61096;SDS011;46977;50.936;6.908;2023-02-28T03:02:15;1.13;;;1.13;;
61096;SDS011;46977;50.936;6.908;2023-02-28T03:05:20;0.70;;;0.70;;
61096;SDS011;46977;50.936;6.908;2023-02-28T03:08:25;0.63;;;0.60;;
61096;SDS011;46977;50.936;6.908;2023-02-28T03:11:28;1.10;;;0.70;;
61096;SDS011;46977;50.936;6.908;2023-02-28T03:14:34;0.85;;;0.68;;
61096;SDS011;46977;50.936;6.908;2023-02-28T03:17:48;0.88;;;0.70;;
61096;SDS011;46977;50.936;6.908;2023-02-28T03:21:05;0.77;;;0.60;;
61096;SDS011;46977;50.936;6.908;2023-02-28T03:24:14;0.70;;;0.70;;
61096;SDS011;46977;50.936;6.908;2023-02-28T03:27:21;0.77;;;0.77;;
61096;SDS011;46977;50.936;6.908;2023-02-28T03:30:27;1.77;;;0.90;;
61096;SDS011;46977;50.936;6.908;2023-02-28T03:33:34;1.48;;;0.80;;
61096;SDS011;46977;50.936;6.908;2023-02-28T03:36:41;1.35;;;0.70;;
61096;SDS011;46977;50.936;6.908;2023-02-28T03:39:46;2.85;;;1.15;;
61096;SDS011;46977;50.936;6.908;2023-02-28T03:42:52;0.60;;;0.60;;
61096;SDS011;46977;50.936;6.908;2023-02-28T03:45:57;0.77;;;0.65;;
61096;SDS011;46977;50.936;6.908;2023-02-28T03:49:02;1.98;;;0.80;;
61096;SDS011;46977;50.936;6.908;2023-02-28T03:52:07;1.75;;;0.93;;
61096;SDS011;46977;50.936;6.908;2023-02-28T03:55:10;1.02;;;0.70;;
61096;SDS011;46977;50.936;6.908;2023-02-28T03:58:15;0.80;;;0.80;;
61096;SDS011;46977;50.936;6.908;2023-02-28T04:01:24;0.80;;;0.80;;
61096;SDS011;46977;50.936;6.908;2023-02-28T04:04:29;0.80;;;0.80;;
61096;SDS011;46977;50.936;6.908;2023-02-28T04:07:33;1.17;;;0.70;;
61096;SDS011;46977;50.936;6.908;2023-02-28T04:10:35;1.45;;;0.93;;
61096;SDS011;46977;50.936;6.908;2023-02-28T04:13:37;1.92;;;0.70;;
61096;SDS011;46977;50.936;6.908;2023-02-28T04:16:40;1.67;;;0.90;;
61096;SDS011;46977;50.936;6.908;2023-02-28T04:19:43;1.17;;;0.90;;
61096;SDS011;46977;50.936;6.908;2023-02-28T04:22:47;1.88;;;1.10;;
61096;SDS011;46977;50.936;6.908;2023-02-28T04:25:49;2.10;;;1.10;;
61096;SDS011;46977;50.936;6.908;2023-02-28T04:28:52;1.40;;;1.13;;
61096;SDS011;46977;50.936;6.908;2023-02-28T04:31:55;2.13;;;1.15;;
61096;SDS011;46977;50.936;6.908;2023-02-28T04:35:00;1.23;;;0.95;;
61096;SDS011;46977;50.936;6.908;2023-02-28T04:38:03;3.08;;;1.10;;
61096;SDS011;46977;50.936;6.908;2023-02-28T04:41:06;1.48;;;1.08;;
61096;SDS011;46977;50.936;6.908;2023-02-28T04:44:08;1.17;;;1.08;;
61096;SDS011;46977;50.936;6.908;2023-02-28T04:47:10;0.93;;;0.93;;
61096;SDS011;46977;50.936;6.908;2023-02-28T04:50:13;1.73;;;0.90;;
61096;SDS011;46977;50.936;6.908;2023-02-28T04:53:16;1.33;;;0.80;;
61096;SDS011;46977;50.936;6.908;2023-02-28T04:56:19;1.13;;;1.10;;
61096;SDS011;46977;50.936;6.908;2023-02-28T04:59:21;1.27;;;0.90;;
61096;SDS011;46977;50.936;6.908;2023-02-28T05:02:24;1.20;;;1.10;;
61096;SDS011;46977;50.936;6.908;2023-02-28T05:05:26;0.82;;;0.80;;
61096;SDS011;46977;50.936;6.908;2023-02-28T05:08:30;1.92;;;0.75;;
61096;SDS011;46977;50.936;6.908;2023-02-28T05:11:33;2.05;;;0.80;;
61096;SDS011;46977;50.936;6.908;2023-02-28T05:14:37;2.30;;;1.05;;
61096;SDS011;46977;50.936;6.908;2023-02-28T05:17:39;2.40;;;1.15;;
61096;SDS011;46977;50.936;6.908;2023-02-28T05:20:41;2.15;;;1.20;;
61096;SDS011;46977;50.936;6.908;2023-02-28T05:23:45;2.20;;;1.20;;
61096;SDS011;46977;50.936;6.908;2023-02-28T05:26:49;1.23;;;0.90;;
61096;SDS011;46977;50.936;6.908;2023-02-28T05:29:53;2.03;;;1.27;;
61096;SDS011;46977;50.936;6.908;2023-02-28T05:32:55;1.02;;;1.00;;
61096;SDS011;46977;50.936;6.908;2023-02-28T05:35:58;2.33;;;1.10;;
61096;SDS011;46977;50.936;6.908;2023-02-28T05:39:01;2.80;;;1.23;;
61096;SDS011;46977;50.936;6.908;2023-02-28T05:42:05;2.17;;;1.10;;
61096;SDS011;46977;50.936;6.908;2023-02-28T05:45:08;1.20;;;1.10;;
61096;SDS011;46977;50.936;6.908;2023-02-28T05:48:12;1.67;;;0.93;;
61096;SDS011;46977;50.936;6.908;2023-02-28T05:51:14;1.23;;;1.02;;
61096;SDS011;46977;50.936;6.908;2023-02-28T05:54:18;1.60;;;1.05;;
61096;SDS011;46977;50.936;6.908;2023-02-28T05:57:20;1.00;;;0.90;;
61096;SDS011;46977;50.936;6.908;2023-02-28T06:00:25;2.42;;;1.00;;
61096;SDS011;46977;50.936;6.908;2023-02-28T06:03:28;2.22;;;0.80;;
61096;SDS011;46977;50.936;6.908;2023-02-28T06:06:30;1.48;;;1.00;;
61096;SDS011;46977;50.936;6.908;2023-02-28T06:09:34;1.45;;;1.08;;
61096;SDS011;46977;50.936;6.908;2023-02-28T06:12:37;1.15;;;1.05;;
61096;SDS011;46977;50.936;6.908;2023-02-28T06:15:39;1.25;;;1.00;;
61096;SDS011;46977;50.936;6.908;2023-02-28T06:18:42;1.98;;;0.80;;
61096;SDS011;46977;50.936;6.908;2023-02-28T06:21:44;1.23;;;1.02;;
61096;SDS011;46977;50.936;6.908;2023-02-28T06:24:48;2.10;;;0.77;;
61096;SDS011;46977;50.936;6.908;2023-02-28T06:27:50;0.70;;;0.70;;
61096;SDS011;46977;50.936;6.908;2023-02-28T06:30:53;1.05;;;0.90;;
61096;SDS011;46977;50.936;6.908;2023-02-28T06:33:56;1.70;;;0.80;;
61096;SDS011;46977;50.936;6.908;2023-02-28T06:36:59;1.65;;;1.13;;
61096;SDS011;46977;50.936;6.908;2023-02-28T06:40:06;1.77;;;0.98;;
61096;SDS011;46977;50.936;6.908;2023-02-28T06:43:09;1.67;;;0.90;;
61096;SDS011;46977;50.936;6.908;2023-02-28T06:46:15;0.85;;;0.70;;
61096;SDS011;46977;50.936;6.908;2023-02-28T06:49:17;1.88;;;1.00;;
61096;SDS011;46977;50.936;6.908;2023-02-28T06:52:19;0.75;;;0.75;;
61096;SDS011;46977;50.936;6.908;2023-02-28T06:55:25;1.65;;;0.80;;
61096;SDS011;46977;50.936;6.908;2023-02-28T06:58:28;1.10;;;0.70;;
61096;SDS011;46977;50.936;6.908;2023-02-28T07:01:31;1.27;;;0.75;;
61096;SDS011;46977;50.936;6.908;2023-02-28T07:04:34;1.13;;;0.80;;
61096;SDS011;46977;50.936;6.908;2023-02-28T07:07:37;1.05;;;0.95;;
61096;SDS011;46977;50.936;6.908;2023-02-28T07:10:43;0.80;;;0.80;;
61096;SDS011;46977;50.936;6.908;2023-02-28T07:13:46;1.48;;;0.52;;
61096;SDS011;46977;50.936;6.908;2023-02-28T07:16:49;0.73;;;0.60;;
61096;SDS011;46977;50.936;6.908;2023-02-28T07:19:52;0.88;;;0.70;;
61096;SDS011;46977;50.936;6.908;2023-02-28T07:22:54;0.90;;;0.68;;
61096;SDS011;46977;50.936;6.908;2023-02-28T07:25:59;0.73;;;0.65;;
61096;SDS011;46977;50.936;6.908;2023-02-28T07:29:01;0.60;;;0.60;;
61096;SDS011;46977;50.936;6.908;2023-02-28T07:32:04;0.77;;;0.75;;
61096;SDS011;46977;50.936;6.908;2023-02-28T07:35:07;1.60;;;0.60;;
61096;SDS011;46977;50.936;6.908;2023-02-28T07:38:10;1.58;;;0.98;;
61096;SDS011;46977;50.936;6.908;2023-02-28T07:41:13;0.90;;;0.50;;
61096;SDS011;46977;50.936;6.908;2023-02-28T07:44:16;0.93;;;0.60;;
61096;SDS011;46977;50.936;6.908;2023-02-28T07:47:18;0.80;;;0.60;;
61096;SDS011;46977;50.936;6.908;2023-02-28T07:50:21;1.17;;;0.70;;
61096;SDS011;46977;50.936;6.908;2023-02-28T07:53:25;1.65;;;0.70;;
61096;SDS011;46977;50.936;6.908;2023-02-28T07:56:29;4.97;;;0.70;;
61096;SDS011;46977;50.936;6.908;2023-02-28T07:59:32;0.63;;;0.63;;
61096;SDS011;46977;50.936;6.908;2023-02-28T08:02:35;0.55;;;0.55;;
61096;SDS011;46977;50.936;6.908;2023-02-28T08:05:38;0.60;;;0.60;;
61096;SDS011;46977;50.936;6.908;2023-02-28T08:08:40;0.50;;;0.50;;
61096;SDS011;46977;50.936;6.908;2023-02-28T08:11:44;1.10;;;0.73;;
61096;SDS011;46977;50.936;6.908;2023-02-28T08:14:46;0.75;;;0.52;;
61096;SDS011;46977;50.936;6.908;2023-02-28T08:17:49;1.25;;;0.85;;
61096;SDS011;46977;50.936;6.908;2023-02-28T08:20:52;3.35;;;0.73;;
61096;SDS011;46977;50.936;6.908;2023-02-28T08:23:54;0.57;;;0.57;;
61096;SDS011;46977;50.936;6.908;2023-02-28T08:26:59;0.88;;;0.70;;
61096;SDS011;46977;50.936;6.908;2023-02-28T08:30:03;1.00;;;0.57;;
61096;SDS011;46977;50.936;6.908;2023-02-28T08:33:06;0.52;;;0.52;;
61096;SDS011;46977;50.936;6.908;2023-02-28T08:36:08;0.50;;;0.50;;
61096;SDS011;46977;50.936;6.908;2023-02-28T08:39:11;1.27;;;0.50;;
61096;SDS011;46977;50.936;6.908;2023-02-28T08:42:15;0.68;;;0.55;;
61096;SDS011;46977;50.936;6.908;2023-02-28T08:45:17;0.55;;;0.50;;
61096;SDS011;46977;50.936;6.908;2023-02-28T08:48:19;0.45;;;0.40;;
61096;SDS011;46977;50.936;6.908;2023-02-28T08:51:22;0.90;;;0.40;;
61096;SDS011;46977;50.936;6.908;2023-02-28T08:54:28;1.10;;;0.38;;
61096;SDS011;46977;50.936;6.908;2023-02-28T08:57:34;0.57;;;0.52;;
61096;SDS011;46977;50.936;6.908;2023-02-28T09:00:38;0.50;;;0.50;;
61096;SDS011;46977;50.936;6.908;2023-02-28T09:03:40;0.60;;;0.40;;
61096;SDS011;46977;50.936;6.908;2023-02-28T09:06:43;0.30;;;0.30;;
61096;SDS011;46977;50.936;6.908;2023-02-28T09:09:46;0.30;;;0.30;;
61096;SDS011;46977;50.936;6.908;2023-02-28T09:13:00;0.30;;;0.30;;
61096;SDS011;46977;50.936;6.908;2023-02-28T09:16:04;0.73;;;0.30;;
61096;SDS011;46977;50.936;6.908;2023-02-28T09:19:10;0.57;;;0.50;;
61096;SDS011;46977;50.936;6.908;2023-02-28T09:22:12;0.88;;;0.50;;
61096;SDS011;46977;50.936;6.908;2023-02-28T09:25:14;0.70;;;0.40;;
61096;SDS011;46977;50.936;6.908;2023-02-28T09:28:18;0.57;;;0.50;;
61096;SDS011;46977;50.936;6.908;2023-02-28T09:31:21;0.50;;;0.40;;
61096;SDS011;46977;50.936;6.908;2023-02-28T09:34:25;0.70;;;0.50;;
61096;SDS011;46977;50.936;6.908;2023-02-28T09:37:28;0.50;;;0.30;;
61096;SDS011;46977;50.936;6.908;2023-02-28T09:40:31;0.40;;;0.40;;
61096;SDS011;46977;50.936;6.908;2023-02-28T09:43:35;0.47;;;0.38;;
61096;SDS011;46977;50.936;6.908;2023-02-28T09:46:41;0.30;;;0.30;;
61096;SDS011;46977;50.936;6.908;2023-02-28T09:49:46;0.60;;;0.43;;
61096;SDS011;46977;50.936;6.908;2023-02-28T09:52:49;1.20;;;0.30;;
61096;SDS011;46977;50.936;6.908;2023-02-28T09:55:53;1.10;;;0.40;;
61096;SDS011;46977;50.936;6.908;2023-02-28T09:59:00;0.60;;;0.50;;
61096;SDS011;46977;50.936;6.908;2023-02-28T10:02:04;0.52;;;0.40;;
61096;SDS011;46977;50.936;6.908;2023-02-28T10:05:14;0.47;;;0.40;;
61096;SDS011;46977;50.936;6.908;2023-02-28T10:08:19;0.68;;;0.60;;
61096;SDS011;46977;50.936;6.908;2023-02-28T10:11:27;0.73;;;0.40;;
61096;SDS011;46977;50.936;6.908;2023-02-28T10:14:32;0.57;;;0.50;;
61096;SDS011;46977;50.936;6.908;2023-02-28T10:17:36;0.40;;;0.40;;
61096;SDS011;46977;50.936;6.908;2023-02-28T10:20:56;0.70;;;0.50;;
61096;SDS011;46977;50.936;6.908;2023-02-28T10:24:02;0.98;;;0.40;;
61096;SDS011;46977;50.936;6.908;2023-02-28T10:27:09;0.55;;;0.40;;
61096;SDS011;46977;50.936;6.908;2023-02-28T10:30:17;1.13;;;0.40;;
61096;SDS011;46977;50.936;6.908;2023-02-28T10:33:22;0.50;;;0.50;;
61096;SDS011;46977;50.936;6.908;2023-02-28T10:36:25;0.80;;;0.47;;
61096;SDS011;46977;50.936;6.908;2023-02-28T10:39:35;0.55;;;0.47;;
61096;SDS011;46977;50.936;6.908;2023-02-28T10:42:41;1.42;;;0.50;;
61096;SDS011;46977;50.936;6.908;2023-02-28T10:45:53;0.73;;;0.50;;
61096;SDS011;46977;50.936;6.908;2023-02-28T10:49:00;1.05;;;1.05;;
61096;SDS011;46977;50.936;6.908;2023-02-28T10:52:07;0.50;;;0.50;;
61096;SDS011;46977;50.936;6.908;2023-02-28T10:55:15;0.90;;;0.50;;
61096;SDS011;46977;50.936;6.908;2023-02-28T10:58:22;0.45;;;0.45;;
61096;SDS011;46977;50.936;6.908;2023-02-28T11:01:33;0.68;;;0.47;;
61096;SDS011;46977;50.936;6.908;2023-02-28T11:04:39;0.50;;;0.50;;
61096;SDS011;46977;50.936;6.908;2023-02-28T11:07:42;0.55;;;0.55;;
61096;SDS011;46977;50.936;6.908;2023-02-28T11:10:54;1.13;;;0.80;;
61096;SDS011;46977;50.936;6.908;2023-02-28T11:14:03;0.65;;;0.60;;
61096;SDS011;46977;50.936;6.908;2023-02-28T11:17:13;0.70;;;0.70;;
61096;SDS011;46977;50.936;6.908;2023-02-28T11:20:18;0.68;;;0.60;;
61096;SDS011;46977;50.936;6.908;2023-02-28T11:23:23;0.85;;;0.65;;
61096;SDS011;46977;50.936;6.908;2023-02-28T11:26:36;0.57;;;0.52;;
61096;SDS011;46977;50.936;6.908;2023-02-28T11:29:42;0.70;;;0.63;;
61096;SDS011;46977;50.936;6.908;2023-02-28T11:32:50;1.10;;;0.47;;
61096;SDS011;46977;50.936;6.908;2023-02-28T11:35:53;0.68;;;0.60;;
61096;SDS011;46977;50.936;6.908;2023-02-28T11:38:59;2.03;;;0.88;;
61096;SDS011;46977;50.936;6.908;2023-02-28T11:42:10;0.93;;;0.63;;
61096;SDS011;46977;50.936;6.908;2023-02-28T11:45:22;0.70;;;0.70;;
61096;SDS011;46977;50.936;6.908;2023-02-28T11:48:40;2.03;;;0.80;;
61096;SDS011;46977;50.936;6.908;2023-02-28T11:51:47;0.60;;;0.60;;
61096;SDS011;46977;50.936;6.908;2023-02-28T11:54:54;1.17;;;0.60;;
61096;SDS011;46977;50.936;6.908;2023-02-28T11:58:14;0.85;;;0.70;;
61096;SDS011;46977;50.936;6.908;2023-02-28T12:01:28;0.80;;;0.80;;
61096;SDS011;46977;50.936;6.908;2023-02-28T12:04:42;1.00;;;0.82;;
61096;SDS011;46977;50.936;6.908;2023-02-28T12:07:56;1.52;;;0.70;;
61096;SDS011;46977;50.936;6.908;2023-02-28T12:14:19;1.05;;;0.70;;
61096;SDS011;46977;50.936;6.908;2023-02-28T12:17:37;1.58;;;0.80;;
61096;SDS011;46977;50.936;6.908;2023-02-28T12:20:52;1.77;;;0.90;;
61096;SDS011;46977;50.936;6.908;2023-02-28T12:24:10;0.60;;;0.60;;
61096;SDS011;46977;50.936;6.908;2023-02-28T12:27:21;1.00;;;1.00;;
61096;SDS011;46977;50.936;6.908;2023-02-28T12:30:28;0.70;;;0.60;;
61096;SDS011;46977;50.936;6.908;2023-02-28T12:33:34;1.50;;;0.77;;
61096;SDS011;46977;50.936;6.908;2023-02-28T12:36:39;0.90;;;0.90;;
61096;SDS011;46977;50.936;6.908;2023-02-28T12:39:44;2.95;;;0.98;;
61096;SDS011;46977;50.936;6.908;2023-02-28T12:42:52;1.15;;;0.77;;
61096;SDS011;46977;50.936;6.908;2023-02-28T12:45:59;0.75;;;0.75;;
61096;SDS011;46977;50.936;6.908;2023-02-28T12:49:08;1.38;;;0.80;;
61096;SDS011;46977;50.936;6.908;2023-02-28T12:52:14;1.50;;;0.80;;
61096;SDS011;46977;50.936;6.908;2023-02-28T12:55:23;1.63;;;0.73;;
61096;SDS011;46977;50.936;6.908;2023-02-28T12:58:30;2.05;;;1.02;;
61096;SDS011;46977;50.936;6.908;2023-02-28T13:01:39;1.15;;;0.98;;
61096;SDS011;46977;50.936;6.908;2023-02-28T13:04:55;1.00;;;1.00;;
61096;SDS011;46977;50.936;6.908;2023-02-28T13:11:48;0.85;;;0.80;;
61096;SDS011;46977;50.936;6.908;2023-02-28T13:15:00;0.77;;;0.77;;
61096;SDS011;46977;50.936;6.908;2023-02-28T13:18:20;1.40;;;1.30;;
61096;SDS011;46977;50.936;6.908;2023-02-28T13:21:30;1.05;;;1.05;;
61096;SDS011;46977;50.936;6.908;2023-02-28T13:24:44;1.60;;;0.85;;
61096;SDS011;46977;50.936;6.908;2023-02-28T13:27:48;1.05;;;0.95;;
61096;SDS011;46977;50.936;6.908;2023-02-28T13:31:01;0.90;;;0.90;;
61096;SDS011;46977;50.936;6.908;2023-02-28T13:34:14;1.27;;;0.90;;
61096;SDS011;46977;50.936;6.908;2023-02-28T13:37:33;1.48;;;1.20;;
61096;SDS011;46977;50.936;6.908;2023-02-28T13:40:39;2.55;;;1.00;;
61096;SDS011;46977;50.936;6.908;2023-02-28T13:44:00;0.70;;;0.70;;
61096;SDS011;46977;50.936;6.908;2023-02-28T13:47:19;1.55;;;1.08;;
61096;SDS011;46977;50.936;6.908;2023-02-28T13:50:27;1.30;;;1.20;;
61096;SDS011;46977;50.936;6.908;2023-02-28T13:53:34;1.10;;;1.00;;
61096;SDS011;46977;50.936;6.908;2023-02-28T13:57:00;1.23;;;0.80;;
61096;SDS011;46977;50.936;6.908;2023-02-28T14:00:15;1.33;;;0.82;;
61096;SDS011;46977;50.936;6.908;2023-02-28T14:03:30;1.00;;;0.80;;
61096;SDS011;46977;50.936;6.908;2023-02-28T14:06:39;1.63;;;1.00;;
61096;SDS011;46977;50.936;6.908;2023-02-28T14:09:51;0.95;;;0.90;;
61096;SDS011;46977;50.936;6.908;2023-02-28T14:13:02;1.75;;;0.90;;
61096;SDS011;46977;50.936;6.908;2023-02-28T14:16:13;1.10;;;1.00;;
61096;SDS011;46977;50.936;6.908;2023-02-28T14:19:19;1.42;;;1.33;;
61096;SDS011;46977;50.936;6.908;2023-02-28T14:25:58;1.75;;;1.38;;
61096;SDS011;46977;50.936;6.908;2023-02-28T14:29:14;2.92;;;0.93;;
61096;SDS011;46977;50.936;6.908;2023-02-28T14:32:27;2.30;;;0.90;;
61096;SDS011;46977;50.936;6.908;2023-02-28T14:35:39;1.60;;;1.02;;
61096;SDS011;46977;50.936;6.908;2023-02-28T14:38:49;1.73;;;0.93;;
61096;SDS011;46977;50.936;6.908;2023-02-28T14:41:55;1.20;;;1.10;;
61096;SDS011;46977;50.936;6.908;2023-02-28T14:45:02;0.88;;;0.88;;
61096;SDS011;46977;50.936;6.908;2023-02-28T14:48:08;1.73;;;1.17;;
61096;SDS011;46977;50.936;6.908;2023-02-28T14:51:11;1.20;;;1.10;;
61096;SDS011;46977;50.936;6.908;2023-02-28T14:54:14;1.63;;;1.40;;
61096;SDS011;46977;50.936;6.908;2023-02-28T14:57:22;1.88;;;1.00;;
61096;SDS011;46977;50.936;6.908;2023-02-28T15:00:31;1.15;;;1.05;;
61096;SDS011;46977;50.936;6.908;2023-02-28T15:03:35;1.13;;;1.00;;
61096;SDS011;46977;50.936;6.908;2023-02-28T15:06:39;1.70;;;1.10;;
61096;SDS011;46977;50.936;6.908;2023-02-28T15:09:43;1.33;;;1.00;;
61096;SDS011;46977;50.936;6.908;2023-02-28T15:12:47;0.80;;;0.80;;
61096;SDS011;46977;50.936;6.908;2023-02-28T15:15:55;1.30;;;1.20;;
61096;SDS011;46977;50.936;6.908;2023-02-28T15:19:05;0.85;;;0.85;;
61096;SDS011;46977;50.936;6.908;2023-02-28T15:22:11;1.48;;;1.10;;
61096;SDS011;46977;50.936;6.908;2023-02-28T15:31:28;1.05;;;0.90;;
61096;SDS011;46977;50.936;6.908;2023-02-28T15:34:44;1.80;;;1.20;;
61096;SDS011;46977;50.936;6.908;2023-02-28T15:37:48;2.20;;;1.40;;
61096;SDS011;46977;50.936;6.908;2023-02-28T15:40:55;1.50;;;1.05;;
61096;SDS011;46977;50.936;6.908;2023-02-28T15:44:15;2.15;;;1.08;;
61096;SDS011;46977;50.936;6.908;2023-02-28T15:47:30;0.93;;;0.93;;
61096;SDS011;46977;50.936;6.908;2023-02-28T15:50:32;1.25;;;1.15;;
61096;SDS011;46977;50.936;6.908;2023-02-28T15:53:36;2.53;;;1.02;;
61096;SDS011;46977;50.936;6.908;2023-02-28T15:56:43;1.30;;;1.10;;
61096;SDS011;46977;50.936;6.908;2023-02-28T15:59:48;2.00;;;1.02;;
61096;SDS011;46977;50.936;6.908;2023-02-28T16:02:54;1.50;;;1.20;;
61096;SDS011;46977;50.936;6.908;2023-02-28T16:09:24;1.63;;;1.17;;
61096;SDS011;46977;50.936;6.908;2023-02-28T16:12:27;1.77;;;1.20;;
61096;SDS011;46977;50.936;6.908;2023-02-28T16:15:31;1.85;;;1.10;;
61096;SDS011;46977;50.936;6.908;2023-02-28T16:18:44;1.27;;;1.10;;
61096;SDS011;46977;50.936;6.908;2023-02-28T16:21:47;1.20;;;1.13;;
61096;SDS011;46977;50.936;6.908;2023-02-28T16:24:49;0.95;;;0.93;;
61096;SDS011;46977;50.936;6.908;2023-02-28T16:27:52;1.15;;;1.05;;
61096;SDS011;46977;50.936;6.908;2023-02-28T16:30:55;2.60;;;1.20;;
61096;SDS011;46977;50.936;6.908;2023-02-28T16:33:59;1.13;;;1.00;;
61096;SDS011;46977;50.936;6.908;2023-02-28T16:37:01;1.60;;;1.27;;
61096;SDS011;46977;50.936;6.908;2023-02-28T16:40:04;2.63;;;1.40;;
61096;SDS011;46977;50.936;6.908;2023-02-28T16:43:09;1.25;;;1.15;;
61096;SDS011;46977;50.936;6.908;2023-02-28T16:46:16;0.85;;;0.85;;
61096;SDS011;46977;50.936;6.908;2023-02-28T16:49:20;1.33;;;0.90;;
61096;SDS011;46977;50.936;6.908;2023-02-28T16:52:23;1.45;;;1.30;;
61096;SDS011;46977;50.936;6.908;2023-02-28T16:55:25;0.90;;;0.80;;
61096;SDS011;46977;50.936;6.908;2023-02-28T16:58:28;3.83;;;1.55;;
61096;SDS011;46977;50.936;6.908;2023-02-28T17:01:30;1.17;;;1.00;;
61096;SDS011;46977;50.936;6.908;2023-02-28T17:04:35;1.95;;;0.90;;
61096;SDS011;46977;50.936;6.908;2023-02-28T17:07:37;1.50;;;1.17;;
61096;SDS011;46977;50.936;6.908;2023-02-28T17:10:40;1.70;;;1.17;;
61096;SDS011;46977;50.936;6.908;2023-02-28T17:13:42;1.55;;;1.05;;
61096;SDS011;46977;50.936;6.908;2023-02-28T17:16:44;1.88;;;1.30;;
61096;SDS011;46977;50.936;6.908;2023-02-28T17:19:48;2.17;;;1.33;;
61096;SDS011;46977;50.936;6.908;2023-02-28T17:22:51;1.85;;;1.00;;
61096;SDS011;46977;50.936;6.908;2023-02-28T17:25:53;1.45;;;1.20;;
61096;SDS011;46977;50.936;6.908;2023-02-28T17:28:59;2.00;;;1.40;;
61096;SDS011;46977;50.936;6.908;2023-02-28T17:32:01;4.20;;;1.10;;
61096;SDS011;46977;50.936;6.908;2023-02-28T17:35:20;1.30;;;1.17;;
61096;SDS011;46977;50.936;6.908;2023-02-28T17:38:23;1.98;;;1.20;;
61096;SDS011;46977;50.936;6.908;2023-02-28T17:41:25;2.10;;;1.15;;
61096;SDS011;46977;50.936;6.908;2023-02-28T17:44:28;1.95;;;0.90;;
61096;SDS011;46977;50.936;6.908;2023-02-28T17:47:30;2.20;;;1.20;;
61096;SDS011;46977;50.936;6.908;2023-02-28T17:50:34;1.10;;;0.80;;
61096;SDS011;46977;50.936;6.908;2023-02-28T17:53:39;2.25;;;1.27;;
61096;SDS011;46977;50.936;6.908;2023-02-28T17:56:42;1.45;;;1.15;;
61096;SDS011;46977;50.936;6.908;2023-02-28T17:59:47;0.90;;;0.90;;
61096;SDS011;46977;50.936;6.908;2023-02-28T18:02:50;1.35;;;1.30;;
61096;SDS011;46977;50.936;6.908;2023-02-28T18:05:54;4.80;;;1.38;;
61096;SDS011;46977;50.936;6.908;2023-02-28T18:08:58;3.55;;;2.83;;
61096;SDS011;46977;50.936;6.908;2023-02-28T18:12:01;3.03;;;1.50;;
61096;SDS011;46977;50.936;6.908;2023-02-28T18:15:03;1.38;;;1.27;;
61096;SDS011;46977;50.936;6.908;2023-02-28T18:18:07;3.38;;;1.67;;
61096;SDS011;46977;50.936;6.908;2023-02-28T18:21:11;1.48;;;1.30;;
61096;SDS011;46977;50.936;6.908;2023-02-28T18:24:14;2.53;;;1.80;;
61096;SDS011;46977;50.936;6.908;2023-02-28T18:27:17;2.40;;;2.17;;
61096;SDS011;46977;50.936;6.908;2023-02-28T18:30:19;1.70;;;1.60;;
61096;SDS011;46977;50.936;6.908;2023-02-28T18:33:22;1.92;;;1.80;;
61096;SDS011;46977;50.936;6.908;2023-02-28T18:36:26;2.42;;;1.70;;
61096;SDS011;46977;50.936;6.908;2023-02-28T18:39:30;2.22;;;1.70;;
61096;SDS011;46977;50.936;6.908;2023-02-28T18:42:33;2.05;;;1.85;;
61096;SDS011;46977;50.936;6.908;2023-02-28T18:45:35;2.33;;;2.22;;
61096;SDS011;46977;50.936;6.908;2023-02-28T18:48:38;2.35;;;1.70;;
61096;SDS011;46977;50.936;6.908;2023-02-28T18:51:42;2.95;;;2.10;;
61096;SDS011;46977;50.936;6.908;2023-02-28T18:54:46;2.30;;;1.80;;
61096;SDS011;46977;50.936;6.908;2023-02-28T18:57:48;1.92;;;1.83;;
61096;SDS011;46977;50.936;6.908;2023-02-28T19:00:51;1.90;;;1.80;;
61096;SDS011;46977;50.936;6.908;2023-02-28T19:03:53;3.15;;;1.95;;
61096;SDS011;46977;50.936;6.908;2023-02-28T19:06:57;2.55;;;2.35;;